createdAt,value
2023-02-02T00:00:52.371Z,4.20
2023-02-02T00:01:52.300Z,4.30
2023-02-02T00:02:52.248Z,4.10
2023-02-02T00:03:52.304Z,5.10
2023-02-02T00:04:52.131Z,4.00
2023-02-02T00:05:52.078Z,4.90
2023-02-02T00:06:52.045Z,4.30
2023-02-02T00:07:51.922Z,4.30
2023-02-02T00:08:51.838Z,4.30
2023-02-02T00:09:51.798Z,4.10
2023-02-02T00:10:51.753Z,4.00
2023-02-02T00:11:51.701Z,3.40
2023-02-02T00:12:51.578Z,4.90
2023-02-02T00:13:51.535Z,4.00
2023-02-02T00:14:51.473Z,4.60
2023-02-02T00:15:51.487Z,4.40
2023-02-02T00:16:51.349Z,4.40
2023-02-02T00:17:51.280Z,3.70
2023-02-02T00:18:51.297Z,3.90
2023-02-02T00:19:51.241Z,4.10
2023-02-02T00:20:51.171Z,3.90
2023-02-02T00:21:51.111Z,6.00
2023-02-02T00:22:50.979Z,3.80
2023-02-02T00:23:50.926Z,4.60
2023-02-02T00:24:50.867Z,3.50
2023-02-02T00:25:50.859Z,3.40
2023-02-02T00:26:50.813Z,3.60
2023-02-02T00:27:50.810Z,3.70
2023-02-02T00:28:50.664Z,4.00
2023-02-02T00:29:50.556Z,6.40
2023-02-02T00:30:50.516Z,4.00
2023-02-02T00:31:50.489Z,4.20
2023-02-02T00:32:50.330Z,3.30
2023-02-02T00:33:50.425Z,4.00
2023-02-02T00:34:50.321Z,4.30
2023-02-02T00:35:50.164Z,4.20
2023-02-02T00:36:50.106Z,4.00
2023-02-02T00:37:50.040Z,3.60
2023-02-02T00:38:50.035Z,4.50
2023-02-02T00:39:49.951Z,4.60
2023-02-02T00:40:49.934Z,4.80
2023-02-02T00:41:49.843Z,3.40
2023-02-02T00:42:49.756Z,4.10
2023-02-02T00:43:49.626Z,3.40
2023-02-02T00:44:49.608Z,3.50
2023-02-02T00:45:49.579Z,3.50
2023-02-02T00:46:49.526Z,3.90
2023-02-02T00:47:49.385Z,3.90
2023-02-02T00:48:49.309Z,4.40
2023-02-02T00:49:49.266Z,3.60
2023-02-02T00:50:49.227Z,3.40
2023-02-02T00:52:10.119Z,4.00
2023-02-02T00:52:49.105Z,3.60
2023-02-02T00:53:49.077Z,3.80
2023-02-02T00:54:49.019Z,3.40
2023-02-02T00:55:48.919Z,4.40
2023-02-02T00:56:48.818Z,3.50
2023-02-02T00:57:48.839Z,4.10
2023-02-02T00:58:48.699Z,3.90
2023-02-02T00:59:48.637Z,4.40
2023-02-02T01:00:48.592Z,3.80
2023-02-02T01:01:48.534Z,4.30
2023-02-02T01:02:48.439Z,3.70
2023-02-02T01:03:48.458Z,3.90
2023-02-02T01:04:48.323Z,4.30
2023-02-02T01:05:48.254Z,3.90
2023-02-02T01:06:48.195Z,4.70
2023-02-02T01:07:48.129Z,3.60
2023-02-02T01:08:48.097Z,3.70
2023-02-02T01:11:26.891Z,5.10
2023-02-02T01:12:27.793Z,4.60
2023-02-02T01:13:27.788Z,3.70
2023-02-02T01:14:27.686Z,4.00
2023-02-02T01:15:27.610Z,3.80
2023-02-02T01:16:27.696Z,3.70
2023-02-02T01:17:27.552Z,3.80
2023-02-02T01:18:27.416Z,4.30
2023-02-02T01:19:27.368Z,3.80
2023-02-02T01:20:27.341Z,4.20
2023-02-02T01:21:27.320Z,4.10
2023-02-02T01:22:27.206Z,4.70
2023-02-02T01:23:27.174Z,3.40
2023-02-02T01:24:27.084Z,4.00
2023-02-02T01:25:26.986Z,3.90
2023-02-02T01:26:27.021Z,3.50
2023-02-02T01:27:26.853Z,3.50
2023-02-02T01:28:26.803Z,3.70
2023-02-02T01:29:26.741Z,4.10
2023-02-02T01:30:26.648Z,4.20
2023-02-02T01:31:26.702Z,3.90
2023-02-02T01:32:26.549Z,3.50
2023-02-02T01:33:26.522Z,5.00
2023-02-02T01:34:26.426Z,4.40
2023-02-02T01:35:26.682Z,3.90
2023-02-02T01:36:26.327Z,4.10
2023-02-02T01:37:26.262Z,4.20
2023-02-02T01:38:26.198Z,4.00
2023-02-02T01:39:26.120Z,3.60
2023-02-02T01:40:26.048Z,3.90
2023-02-02T01:41:26.027Z,4.30
2023-02-02T01:42:25.893Z,3.80
2023-02-02T01:43:25.859Z,4.60
2023-02-02T01:44:25.770Z,4.40
2023-02-02T01:45:26.560Z,4.00
2023-02-02T01:46:25.676Z,3.50
2023-02-02T01:47:25.633Z,3.80
2023-02-02T01:48:25.556Z,5.00
2023-02-02T01:49:25.544Z,3.60
2023-02-02T01:50:25.419Z,4.10
2023-02-02T01:51:25.402Z,3.80
2023-02-02T01:52:25.315Z,3.70
2023-02-02T01:53:25.225Z,3.90
2023-02-02T01:54:25.194Z,3.70
2023-02-02T01:55:25.434Z,3.80
2023-02-02T01:56:25.064Z,3.80
2023-02-02T01:57:25.031Z,4.00
2023-02-02T01:58:24.899Z,3.90
2023-02-02T01:59:24.877Z,3.60
2023-02-02T02:00:24.831Z,3.90
2023-02-02T02:01:24.770Z,3.80
2023-02-02T02:02:24.692Z,4.70
2023-02-02T02:03:45.580Z,4.30
2023-02-02T02:04:24.503Z,3.60
2023-02-02T02:05:24.783Z,4.10
2023-02-02T02:06:24.473Z,4.60
2023-02-02T02:07:24.354Z,4.20
2023-02-02T02:08:24.315Z,3.70
2023-02-02T02:09:28.221Z,4.80
2023-02-02T02:10:24.134Z,3.70
2023-02-02T02:11:24.155Z,4.00
2023-02-02T02:12:23.997Z,4.40
2023-02-02T02:13:23.963Z,4.20
2023-02-02T02:14:23.878Z,4.90
2023-02-02T02:15:24.178Z,3.70
2023-02-02T02:16:23.907Z,4.30
2023-02-02T02:17:23.719Z,3.70
2023-02-02T02:18:23.725Z,3.90
2023-02-02T02:19:23.571Z,3.80
2023-02-02T02:20:23.556Z,4.90
2023-02-02T02:21:23.476Z,3.50
2023-02-02T02:22:23.439Z,3.70
2023-02-02T02:23:23.390Z,4.20
2023-02-02T02:24:23.310Z,3.90
2023-02-02T02:25:23.646Z,3.70
2023-02-02T02:26:23.221Z,4.00
2023-02-02T02:27:23.175Z,3.60
2023-02-02T02:28:23.039Z,3.60
2023-02-02T02:29:23.059Z,4.20
2023-02-02T02:30:22.950Z,3.60
2023-02-02T02:31:23.002Z,3.80
2023-02-02T02:32:22.814Z,3.20
2023-02-02T02:33:23.037Z,4.40
2023-02-02T02:34:22.693Z,4.70
2023-02-02T02:35:23.016Z,3.60
2023-02-02T02:36:22.562Z,4.10
2023-02-02T02:37:22.528Z,3.40
2023-02-02T02:38:22.431Z,3.90
2023-02-02T02:39:22.416Z,4.70
2023-02-02T02:40:22.295Z,4.10
2023-02-02T02:41:22.262Z,4.20
2023-02-02T02:42:22.182Z,4.60
2023-02-02T02:43:22.121Z,5.30
2023-02-02T02:44:43.067Z,3.90
2023-02-02T02:45:22.056Z,3.40
2023-02-02T02:46:21.929Z,3.80
2023-02-02T02:47:21.844Z,3.90
2023-02-02T02:48:21.773Z,3.90
2023-02-02T02:49:21.703Z,3.40
2023-02-02T02:50:21.697Z,3.60
2023-02-02T02:51:21.640Z,4.10
2023-02-02T02:52:21.582Z,4.60
2023-02-02T02:53:21.525Z,4.00
2023-02-02T02:54:21.424Z,3.90
2023-02-02T02:55:21.398Z,5.50
2023-02-02T02:56:42.236Z,3.70
2023-02-02T02:57:21.153Z,3.60
2023-02-02T02:58:21.162Z,3.70
2023-02-02T02:59:21.113Z,3.90
2023-02-02T03:00:21.046Z,4.40
2023-02-02T03:01:21.022Z,3.80
2023-02-02T03:02:22.623Z,4.00
2023-02-02T03:03:20.776Z,4.00
2023-02-02T03:04:20.769Z,3.50
2023-02-02T03:05:20.675Z,4.50
2023-02-02T03:06:20.653Z,4.10
2023-02-02T03:07:20.603Z,3.30
2023-02-02T03:08:20.547Z,3.40
2023-02-02T03:09:20.484Z,3.90
2023-02-02T03:10:20.406Z,3.70
2023-02-02T03:11:20.411Z,4.50
2023-02-02T03:12:20.288Z,3.10
2023-02-02T03:13:20.219Z,3.80
2023-02-02T03:14:41.148Z,5.50
2023-02-02T03:15:20.104Z,4.30
2023-02-02T03:16:20.059Z,3.40
2023-02-02T03:17:20.002Z,3.90
2023-02-02T03:18:19.910Z,3.70
2023-02-02T03:19:19.873Z,3.60
2023-02-02T03:20:19.791Z,4.00
2023-02-02T03:21:19.742Z,3.20
2023-02-02T03:22:19.684Z,3.20
2023-02-02T03:23:19.627Z,3.80
2023-02-02T03:24:19.527Z,3.20
2023-02-02T03:25:19.485Z,3.70
2023-02-02T03:26:19.464Z,3.60
2023-02-02T03:27:19.370Z,3.30
2023-02-02T03:28:19.309Z,3.90
2023-02-02T03:29:19.210Z,3.10
2023-02-02T03:30:19.158Z,3.50
2023-02-02T03:31:19.079Z,4.10
2023-02-02T03:32:19.097Z,3.50
2023-02-02T03:33:18.979Z,3.20
2023-02-02T03:34:18.925Z,3.20
2023-02-02T03:35:18.869Z,3.20
2023-02-02T03:36:18.787Z,4.10
2023-02-02T03:37:18.733Z,3.40
2023-02-02T03:38:18.620Z,3.90
2023-02-02T03:39:18.579Z,4.60
2023-02-02T03:40:18.494Z,3.50
2023-02-02T03:41:18.425Z,3.20
2023-02-02T03:42:18.359Z,3.40
2023-02-02T03:43:18.298Z,3.40
2023-02-02T03:44:18.271Z,4.60
2023-02-02T03:45:18.197Z,3.60
2023-02-02T03:46:18.147Z,4.10
2023-02-02T03:47:18.103Z,3.20
2023-02-02T03:48:18.006Z,4.90
2023-02-02T03:49:17.964Z,4.00
2023-02-02T03:50:17.899Z,4.50
2023-02-02T03:51:17.850Z,4.10
2023-02-02T03:52:17.754Z,3.30
2023-02-02T03:53:17.663Z,3.60
2023-02-02T03:54:17.602Z,3.20
2023-02-02T03:55:17.535Z,4.30
2023-02-02T03:56:17.510Z,4.20
2023-02-02T03:57:17.441Z,4.00
2023-02-02T03:58:17.438Z,3.90
2023-02-02T03:59:17.336Z,4.00
2023-02-02T04:00:17.248Z,4.50
2023-02-02T04:01:17.159Z,3.80
2023-02-02T04:02:17.111Z,4.20
2023-02-02T04:03:17.054Z,3.20
2023-02-02T04:04:17.002Z,3.60
2023-02-02T04:05:16.905Z,3.80
2023-02-02T04:06:16.903Z,4.30
2023-02-02T04:07:16.808Z,5.00
2023-02-02T04:09:25.995Z,3.30
2023-02-02T04:10:26.898Z,3.60
2023-02-02T04:11:26.846Z,3.90
2023-02-02T04:12:26.799Z,4.20
2023-02-02T04:13:26.713Z,3.10
2023-02-02T04:14:26.690Z,3.90
2023-02-02T04:15:26.944Z,3.30
2023-02-02T04:16:26.559Z,3.50
2023-02-02T04:17:26.504Z,3.50
2023-02-02T04:18:26.419Z,3.60
2023-02-02T04:19:26.352Z,3.40
2023-02-02T04:20:26.336Z,4.00
2023-02-02T04:21:26.212Z,3.50
2023-02-02T04:22:26.187Z,3.70
2023-02-02T04:23:26.101Z,3.60
2023-02-02T04:24:26.033Z,3.20
2023-02-02T04:25:26.419Z,3.30
2023-02-02T04:26:25.919Z,4.10
2023-02-02T04:27:25.816Z,4.20
2023-02-02T04:28:25.817Z,3.80
2023-02-02T04:29:25.699Z,4.10
2023-02-02T04:30:25.689Z,3.50
2023-02-02T04:31:25.574Z,3.40
2023-02-02T04:32:25.581Z,4.20
2023-02-02T04:33:25.438Z,3.60
2023-02-02T04:34:25.413Z,3.90
2023-02-02T04:35:25.733Z,3.60
2023-02-02T04:36:25.284Z,3.60
2023-02-02T04:37:25.247Z,4.60
2023-02-02T04:38:25.159Z,3.60
2023-02-02T04:39:25.092Z,3.30
2023-02-02T04:40:25.081Z,3.40
2023-02-02T04:41:25.006Z,3.40
2023-02-02T04:42:24.901Z,2.90
2023-02-02T04:43:24.848Z,4.00
2023-02-02T04:44:24.819Z,3.40
2023-02-02T04:45:25.132Z,3.80
2023-02-02T04:46:24.674Z,5.10
2023-02-02T04:47:24.584Z,3.20
2023-02-02T04:48:24.555Z,3.70
2023-02-02T04:49:24.457Z,3.50
2023-02-02T04:50:24.455Z,4.20
2023-02-02T04:51:24.363Z,3.90
2023-02-02T04:52:24.268Z,3.90
2023-02-02T04:53:24.208Z,3.00
2023-02-02T04:54:24.168Z,4.60
2023-02-02T04:55:24.547Z,3.40
2023-02-02T04:56:24.079Z,3.40
2023-02-02T04:57:23.984Z,3.70
2023-02-02T04:58:23.895Z,3.40
2023-02-02T04:59:23.813Z,3.40
2023-02-02T05:00:23.764Z,3.90
2023-02-02T05:01:23.765Z,5.10
2023-02-02T05:02:23.672Z,4.00
2023-02-02T05:03:23.578Z,3.80
2023-02-02T05:04:23.528Z,4.00
2023-02-02T05:05:23.822Z,3.80
2023-02-02T05:06:23.407Z,4.30
2023-02-02T05:07:23.295Z,4.10
2023-02-02T05:08:23.268Z,3.80
2023-02-02T05:09:23.198Z,4.20
2023-02-02T05:10:23.243Z,3.80
2023-02-02T05:11:23.106Z,3.90
2023-02-02T05:12:22.993Z,3.90
2023-02-02T05:13:22.971Z,3.70
2023-02-02T05:19:00.806Z,3.60
2023-02-02T05:20:01.755Z,4.10
2023-02-02T05:21:01.619Z,4.00
2023-02-02T05:22:01.564Z,4.00
2023-02-02T05:23:01.489Z,3.50
2023-02-02T05:25:10.683Z,4.70
2023-02-02T05:26:11.578Z,4.10
2023-02-02T05:27:11.513Z,3.70
2023-02-02T05:28:11.475Z,4.10
2023-02-02T05:29:11.393Z,4.20
2023-02-02T05:30:11.376Z,3.80
2023-02-02T05:31:11.328Z,4.20
2023-02-02T05:32:11.232Z,3.50
2023-02-02T05:33:11.174Z,3.90
2023-02-02T05:34:11.098Z,5.10
2023-02-02T05:35:11.038Z,4.20
2023-02-02T05:36:10.955Z,4.20
2023-02-02T05:37:10.916Z,4.10
2023-02-02T05:38:10.883Z,3.50
2023-02-02T05:39:10.793Z,4.20
2023-02-02T05:40:10.729Z,3.80
2023-02-02T05:41:10.660Z,4.40
2023-02-02T05:42:33.023Z,3.70
2023-02-02T05:43:11.447Z,4.50
2023-02-02T05:44:11.033Z,3.30
2023-02-02T05:45:11.267Z,3.90
2023-02-02T05:46:11.105Z,4.00
2023-02-02T05:47:11.032Z,4.60
2023-02-02T05:48:10.253Z,3.60
2023-02-02T05:49:10.176Z,3.90
2023-02-02T05:50:10.111Z,3.80
2023-02-02T05:51:10.061Z,4.10
2023-02-02T05:52:09.966Z,4.20
2023-02-02T05:53:09.931Z,5.30
2023-02-02T05:54:09.836Z,4.40
2023-02-02T05:55:09.781Z,5.70
2023-02-02T05:56:09.732Z,4.60
2023-02-02T05:57:09.675Z,4.10
2023-02-02T05:58:09.641Z,5.40
2023-02-02T05:59:09.532Z,5.30
2023-02-02T06:00:09.506Z,4.70
2023-02-02T06:01:09.458Z,4.70
2023-02-02T06:02:09.366Z,5.30
2023-02-02T06:03:09.359Z,4.60
2023-02-02T06:04:09.239Z,5.40
2023-02-02T06:05:09.152Z,7.70
2023-02-02T06:06:09.129Z,5.50
2023-02-02T06:07:09.091Z,5.90
2023-02-02T06:08:08.964Z,5.70
2023-02-02T06:09:08.895Z,4.40
2023-02-02T06:10:08.852Z,3.90
2023-02-02T06:11:08.765Z,4.50
2023-02-02T06:12:08.724Z,4.00
2023-02-02T06:13:08.648Z,4.40
2023-02-02T06:14:08.576Z,4.30
2023-02-02T06:15:08.539Z,4.70
2023-02-02T06:16:08.547Z,4.80
2023-02-02T06:17:08.371Z,4.70
2023-02-02T06:19:17.569Z,4.80
2023-02-02T06:20:20.712Z,5.20
2023-02-02T06:21:18.416Z,4.80
2023-02-02T06:22:18.380Z,4.20
2023-02-02T06:23:18.320Z,4.40
2023-02-02T06:24:18.229Z,4.40
2023-02-02T06:25:18.170Z,4.50
2023-02-02T06:26:18.143Z,4.70
2023-02-02T06:27:18.071Z,4.50
2023-02-02T06:28:17.980Z,5.20
2023-02-02T06:29:17.961Z,4.30
2023-02-02T06:30:17.843Z,4.20
2023-02-02T06:31:17.856Z,5.00
2023-02-02T06:32:17.726Z,4.70
2023-02-02T06:33:17.658Z,3.70
2023-02-02T06:34:17.610Z,4.40
2023-02-02T06:35:17.960Z,4.50
2023-02-02T06:36:17.503Z,3.50
2023-02-02T06:37:17.387Z,3.50
2023-02-02T06:38:17.334Z,4.20
2023-02-02T06:39:17.236Z,4.30
2023-02-02T06:40:17.171Z,4.00
2023-02-02T06:41:17.119Z,4.10
2023-02-02T06:42:21.731Z,3.60
2023-02-02T06:43:16.975Z,4.20
2023-02-02T06:44:17.014Z,4.00
2023-02-02T06:45:16.887Z,4.30
2023-02-02T06:46:16.879Z,4.50
2023-02-02T06:47:16.721Z,4.40
2023-02-02T06:48:16.647Z,4.50
2023-02-02T06:49:16.603Z,4.30
2023-02-02T06:50:16.563Z,4.70
2023-02-02T06:51:16.505Z,4.40
2023-02-02T06:52:16.445Z,3.90
2023-02-02T06:53:16.408Z,4.50
2023-02-02T06:54:16.336Z,4.20
2023-02-02T06:55:16.250Z,4.00
2023-02-02T06:56:16.169Z,4.30
2023-02-02T06:57:16.095Z,4.00
2023-02-02T06:58:16.004Z,4.00
2023-02-02T06:59:15.981Z,4.20
2023-02-02T07:00:15.891Z,3.30
2023-02-02T07:01:15.915Z,3.20
2023-02-02T07:02:15.920Z,3.10
2023-02-02T07:03:15.738Z,3.40
2023-02-02T07:04:15.673Z,3.80
2023-02-02T07:05:15.576Z,2.80
2023-02-02T07:06:15.627Z,3.00
2023-02-02T07:07:15.468Z,3.60
2023-02-02T07:08:15.436Z,3.00
2023-02-02T07:09:15.393Z,3.60
2023-02-02T07:11:11.259Z,2.90
2023-02-02T07:11:42.237Z,3.30
2023-02-02T07:12:15.146Z,3.20
2023-02-02T07:13:15.063Z,3.20
2023-02-02T07:14:15.017Z,3.80
2023-02-02T07:15:14.976Z,3.90
2023-02-02T07:16:15.022Z,3.40
2023-02-02T07:17:14.819Z,3.30
2023-02-02T07:18:14.735Z,3.00
2023-02-02T07:19:14.687Z,2.90
2023-02-02T07:20:14.619Z,3.00
2023-02-02T07:21:14.553Z,2.40
2023-02-02T07:22:14.536Z,2.50
2023-02-02T07:23:14.490Z,2.40
2023-02-02T07:24:14.400Z,2.00
2023-02-02T07:25:14.301Z,2.90
2023-02-02T07:26:14.298Z,2.20
2023-02-02T07:27:14.179Z,2.10
2023-02-02T07:28:14.140Z,2.60
2023-02-02T07:29:35.088Z,2.20
2023-02-02T07:30:14.012Z,2.40
2023-02-02T07:31:14.080Z,2.30
2023-02-02T07:32:13.873Z,1.40
2023-02-02T07:33:13.874Z,1.80
2023-02-02T07:34:13.757Z,1.50
2023-02-02T07:35:13.689Z,1.50
2023-02-02T07:36:13.668Z,1.10
2023-02-02T07:37:13.547Z,1.80
2023-02-02T07:38:13.509Z,1.40
2023-02-02T07:39:13.457Z,1.60
2023-02-02T07:40:13.349Z,0.70
2023-02-02T07:41:13.726Z,1.00
2023-02-02T07:42:13.269Z,1.10
2023-02-02T07:43:13.174Z,0.80
2023-02-02T07:44:13.213Z,0.70
2023-02-02T07:45:27.244Z,0.90
2023-02-02T07:46:13.310Z,0.70
2023-02-02T07:47:33.937Z,0.70
2023-02-02T07:48:12.863Z,0.90
2023-02-02T07:49:12.797Z,0.60
2023-02-02T07:50:12.745Z,0.60
2023-02-02T07:51:12.695Z,0.60
2023-02-02T07:52:12.596Z,0.80
2023-02-02T07:53:12.632Z,0.60
2023-02-02T07:54:12.491Z,0.70
2023-02-02T07:55:15.012Z,0.90
2023-02-02T07:56:12.355Z,0.70
2023-02-02T07:57:12.294Z,1.20
2023-02-02T07:58:12.254Z,1.10
2023-02-02T07:59:12.195Z,1.10
2023-02-02T08:00:12.131Z,1.00
2023-02-02T08:01:12.038Z,1.20
2023-02-02T08:02:12.046Z,0.80
2023-02-02T08:03:11.971Z,1.10
2023-02-02T08:04:11.848Z,0.60
2023-02-02T08:05:11.790Z,1.60
2023-02-02T08:06:11.749Z,0.70
2023-02-02T08:07:12.543Z,0.90
2023-02-02T08:08:11.589Z,0.80
2023-02-02T08:09:11.498Z,0.90
2023-02-02T08:10:11.475Z,0.90
2023-02-02T08:11:11.440Z,0.90
2023-02-02T08:12:11.309Z,0.60
2023-02-02T08:13:11.275Z,0.70
2023-02-02T08:14:11.234Z,0.50
2023-02-02T08:15:11.120Z,0.60
2023-02-02T08:16:11.073Z,0.70
2023-02-02T08:17:11.035Z,0.60
2023-02-02T08:18:10.955Z,0.60
2023-02-02T08:19:10.885Z,0.60
2023-02-02T08:20:10.852Z,0.70
2023-02-02T08:21:10.769Z,0.80
2023-02-02T08:22:10.750Z,0.80
2023-02-02T08:24:49.576Z,1.00
2023-02-02T08:25:50.494Z,0.60
2023-02-02T08:26:50.515Z,0.60
2023-02-02T08:27:50.393Z,0.70
2023-02-02T08:28:50.312Z,0.70
2023-02-02T08:29:50.862Z,1.10
2023-02-02T08:30:50.375Z,0.60
2023-02-02T08:31:50.185Z,0.60
2023-02-02T08:32:50.050Z,0.60
2023-02-02T08:33:50.037Z,0.70
2023-02-02T08:34:50.163Z,0.60
2023-02-02T08:35:49.887Z,0.80
2023-02-02T08:36:49.825Z,0.60
2023-02-02T08:37:49.764Z,0.70
2023-02-02T08:38:50.553Z,0.80
2023-02-02T08:39:49.584Z,0.70
2023-02-02T08:42:01.259Z,0.70
2023-02-02T08:43:00.123Z,0.70
2023-02-02T08:44:00.111Z,0.70
2023-02-02T08:46:00.191Z,0.60
2023-02-02T08:46:09.550Z,0.80
2023-02-02T08:46:59.917Z,0.60
2023-02-02T08:48:11.181Z,0.90
2023-02-02T08:49:01.059Z,0.60
2023-02-02T08:49:59.730Z,1.10
2023-02-02T08:50:59.639Z,1.40
2023-02-02T08:51:59.538Z,0.70
2023-02-02T08:52:59.558Z,1.00
2023-02-02T08:53:59.439Z,0.60
2023-02-02T08:54:59.380Z,0.70
2023-02-02T08:55:59.403Z,1.00
2023-02-02T08:56:59.300Z,0.60
2023-02-02T08:57:59.199Z,0.70
2023-02-02T08:58:59.149Z,0.60
2023-02-02T08:59:59.053Z,0.60
2023-02-02T09:00:59.028Z,0.70
2023-02-02T09:02:00.345Z,0.60
2023-02-02T09:02:58.856Z,0.80
2023-02-02T09:03:58.868Z,0.60
2023-02-02T09:04:58.769Z,0.60
2023-02-02T09:05:58.712Z,0.70
2023-02-02T09:06:58.598Z,1.10
2023-02-02T09:07:58.551Z,0.70
2023-02-02T09:08:58.527Z,1.30
2023-02-02T09:09:58.451Z,0.90
2023-02-02T09:10:58.391Z,0.70
2023-02-02T09:11:58.330Z,1.00
2023-02-02T09:12:58.301Z,1.10
2023-02-02T09:13:58.189Z,0.60
2023-02-02T09:14:58.102Z,1.30
2023-02-02T09:15:58.055Z,0.90
2023-02-02T09:16:58.107Z,0.70
2023-02-02T09:17:57.911Z,0.60
2023-02-02T09:18:57.818Z,0.60
2023-02-02T09:19:57.800Z,0.70
2023-02-02T09:20:57.720Z,0.60
2023-02-02T09:21:57.685Z,0.70
2023-02-02T09:22:57.714Z,0.70
2023-02-02T09:23:57.521Z,1.00
2023-02-02T09:24:57.515Z,0.70
2023-02-02T09:25:57.431Z,0.60
2023-02-02T09:26:57.411Z,0.70
2023-02-02T09:27:57.280Z,0.70
2023-02-02T09:28:57.218Z,0.70
2023-02-02T09:29:57.159Z,0.60
2023-02-02T09:30:57.168Z,0.70
2023-02-02T09:31:57.190Z,0.60
2023-02-02T09:32:57.008Z,0.80
2023-02-02T09:33:56.926Z,0.70
2023-02-02T09:34:56.839Z,0.60
2023-02-02T09:35:56.801Z,0.60
2023-02-02T09:36:56.708Z,0.60
2023-02-02T09:37:56.612Z,0.60
2023-02-02T09:38:56.574Z,0.60
2023-02-02T09:39:56.526Z,0.70
2023-02-02T09:40:56.490Z,0.60
2023-02-02T09:41:56.394Z,0.60
2023-02-02T09:42:56.326Z,0.60
2023-02-02T09:43:56.285Z,0.70
2023-02-02T09:44:56.258Z,0.60
2023-02-02T09:45:56.159Z,0.70
2023-02-02T09:46:56.049Z,0.60
2023-02-02T09:47:56.047Z,0.70
2023-02-02T09:48:55.973Z,0.90
2023-02-02T09:49:55.873Z,0.70
2023-02-02T09:50:55.855Z,0.70
2023-02-02T09:51:55.723Z,0.60
2023-02-02T09:52:55.715Z,0.70
2023-02-02T09:53:56.237Z,0.60
2023-02-02T09:54:55.584Z,0.60
2023-02-02T09:55:55.488Z,0.60
2023-02-02T09:56:55.651Z,0.70
2023-02-02T09:57:55.365Z,0.60
2023-02-02T09:58:57.744Z,0.70
2023-02-02T09:59:56.138Z,0.70
2023-02-02T10:00:56.459Z,0.60
2023-02-02T10:01:56.784Z,0.70
2023-02-02T10:02:56.451Z,0.70
2023-02-02T10:03:55.042Z,0.70
2023-02-02T10:04:54.937Z,0.60
2023-02-02T10:05:54.848Z,0.60
2023-02-02T10:06:54.820Z,0.80
2023-02-02T10:07:54.726Z,0.70
2023-02-02T10:08:54.700Z,0.60
2023-02-02T10:09:54.623Z,0.70
2023-02-02T10:12:03.763Z,0.70
2023-02-02T10:13:04.641Z,0.90
2023-02-02T10:14:04.600Z,0.60
2023-02-02T10:15:04.579Z,0.70
2023-02-02T10:16:04.519Z,0.60
2023-02-02T10:17:04.381Z,0.80
2023-02-02T10:18:06.070Z,0.70
2023-02-02T10:19:04.275Z,0.70
2023-02-02T10:20:04.250Z,0.70
2023-02-02T10:21:04.111Z,0.70
2023-02-02T10:22:04.112Z,0.70
2023-02-02T10:23:04.021Z,1.00
2023-02-02T10:24:03.976Z,0.70
2023-02-02T10:25:03.877Z,0.70
2023-02-02T10:26:03.840Z,0.70
2023-02-02T10:27:03.761Z,0.70
2023-02-02T10:28:03.720Z,0.70
2023-02-02T10:29:05.211Z,0.60
2023-02-02T10:30:03.608Z,0.70
2023-02-02T10:31:04.148Z,0.60
2023-02-02T10:32:03.537Z,0.80
2023-02-02T10:33:03.380Z,0.70
2023-02-02T10:34:03.309Z,0.60
2023-02-02T10:35:13.478Z,0.70
2023-02-02T10:36:03.232Z,0.70
2023-02-02T10:37:03.108Z,0.70
2023-02-02T10:38:03.082Z,0.60
2023-02-02T10:39:03.047Z,0.70
2023-02-02T10:40:02.980Z,0.70
2023-02-02T10:41:02.882Z,0.70
2023-02-02T10:42:02.879Z,0.60
2023-02-02T10:43:02.794Z,0.70
2023-02-02T10:44:02.688Z,0.70
2023-02-02T10:45:02.659Z,0.70
2023-02-02T10:46:02.572Z,0.60
2023-02-02T10:47:23.506Z,0.70
2023-02-02T10:48:02.462Z,0.70
2023-02-02T10:49:03.255Z,0.60
2023-02-02T10:50:02.312Z,0.70
2023-02-02T10:51:02.339Z,0.60
2023-02-02T10:52:02.194Z,0.70
2023-02-02T10:53:02.157Z,0.60
2023-02-02T10:54:02.113Z,0.70
2023-02-02T10:55:04.159Z,0.70
2023-02-02T10:56:02.546Z,0.60
2023-02-02T10:57:01.899Z,0.70
2023-02-02T10:58:01.777Z,0.70
2023-02-02T10:59:01.743Z,0.60
2023-02-02T11:00:01.723Z,0.70
2023-02-02T11:01:01.645Z,0.70
2023-02-02T11:02:11.565Z,5.00
2023-02-02T11:03:01.512Z,0.70
2023-02-02T11:04:02.426Z,0.60
2023-02-02T11:05:22.369Z,0.80
2023-02-02T11:06:01.291Z,0.70
2023-02-02T11:07:01.698Z,0.60
2023-02-02T11:08:01.233Z,0.70
2023-02-02T11:09:01.140Z,0.60
2023-02-02T11:10:01.068Z,0.70
2023-02-02T11:11:00.986Z,0.60
2023-02-02T11:12:00.897Z,0.80
2023-02-02T11:13:02.097Z,0.70
2023-02-02T11:14:00.803Z,0.70
2023-02-02T11:15:00.698Z,0.70
2023-02-02T11:16:05.579Z,0.70
2023-02-02T11:17:00.620Z,0.70
2023-02-02T11:18:00.591Z,0.70
2023-02-02T11:19:00.514Z,0.60
2023-02-02T11:20:00.431Z,0.70
2023-02-02T11:21:00.775Z,0.90
2023-02-02T11:22:00.322Z,0.80
2023-02-02T11:23:00.217Z,1.40
2023-02-02T11:24:00.168Z,0.80
2023-02-02T11:25:00.115Z,0.70
2023-02-02T11:26:00.028Z,0.70
2023-02-02T11:27:00.947Z,0.70
2023-02-02T11:27:59.887Z,0.60
2023-02-02T11:29:01.063Z,0.70
2023-02-02T11:29:59.842Z,0.60
2023-02-02T11:30:59.861Z,0.70
2023-02-02T11:31:59.663Z,0.60
2023-02-02T11:32:59.538Z,0.70
2023-02-02T11:33:59.736Z,0.70
2023-02-02T11:34:59.885Z,0.70
2023-02-02T11:35:59.352Z,0.70
2023-02-02T11:36:59.353Z,0.70
2023-02-02T11:37:59.689Z,0.80
2023-02-02T11:38:59.699Z,1.20
2023-02-02T11:39:59.800Z,0.80
2023-02-02T11:41:20.128Z,0.70
2023-02-02T11:41:59.017Z,0.70
2023-02-02T11:42:58.963Z,0.70
2023-02-02T11:43:58.893Z,0.80
2023-02-02T11:44:58.779Z,0.80
2023-02-02T11:46:00.924Z,0.70
2023-02-02T11:46:58.915Z,0.80
2023-02-02T11:47:58.615Z,0.70
2023-02-02T11:48:58.559Z,0.60
2023-02-02T11:49:59.054Z,0.70
2023-02-02T11:50:58.489Z,0.60
2023-02-02T11:51:58.359Z,0.70
2023-02-02T11:52:58.443Z,1.10
2023-02-02T11:53:58.388Z,0.80
2023-02-02T11:54:58.144Z,0.70
2023-02-02T11:55:58.137Z,0.60
2023-02-02T11:56:58.059Z,0.70
2023-02-02T11:57:57.978Z,0.70
2023-02-02T11:58:58.018Z,0.70
2023-02-02T11:59:57.887Z,0.70
2023-02-02T12:00:57.815Z,0.80
2023-02-02T12:02:01.198Z,0.70
2023-02-02T12:02:57.677Z,0.60
2023-02-02T12:03:57.727Z,0.90
2023-02-02T12:04:57.612Z,0.80
2023-02-02T12:05:57.501Z,0.60
2023-02-02T12:06:57.427Z,0.80
2023-02-02T12:07:57.345Z,0.70
2023-02-02T12:08:57.444Z,0.70
2023-02-02T12:09:57.235Z,0.70
2023-02-02T12:10:57.140Z,0.70
2023-02-02T12:11:57.131Z,1.60
2023-02-02T12:12:58.273Z,0.60
2023-02-02T12:14:02.272Z,0.70
2023-02-02T12:18:01.165Z,0.60
2023-02-02T12:18:29.443Z,0.80
2023-02-02T12:19:06.216Z,0.70
2023-02-02T12:20:06.045Z,0.80
2023-02-02T12:21:05.992Z,0.70
2023-02-02T12:22:05.899Z,0.70
2023-02-02T12:23:05.842Z,0.70
2023-02-02T12:24:05.752Z,0.80
2023-02-02T12:25:05.732Z,0.70
2023-02-02T12:26:05.667Z,0.70
2023-02-02T12:27:05.551Z,0.70
2023-02-02T12:28:05.518Z,0.70
2023-02-02T12:29:05.481Z,0.70
2023-02-02T12:30:06.125Z,0.70
2023-02-02T12:31:06.607Z,0.70
2023-02-02T12:32:05.329Z,0.70
2023-02-02T12:33:05.370Z,0.70
2023-02-02T12:34:05.146Z,0.70
2023-02-02T12:35:05.788Z,0.80
2023-02-02T12:36:26.052Z,0.70
2023-02-02T12:37:04.973Z,0.70
2023-02-02T12:38:05.614Z,0.70
2023-02-02T12:39:04.840Z,0.70
2023-02-02T12:40:04.755Z,0.70
2023-02-02T12:41:04.679Z,0.70
2023-02-02T12:42:06.299Z,1.30
2023-02-02T12:43:04.587Z,0.70
2023-02-02T12:44:04.466Z,0.70
2023-02-02T12:45:04.431Z,0.60
2023-02-02T12:46:04.500Z,0.80
2023-02-02T12:47:04.309Z,0.70
2023-02-02T12:48:04.257Z,0.70
2023-02-02T12:49:04.187Z,0.70
2023-02-02T12:50:04.120Z,0.80
2023-02-02T12:51:04.095Z,0.70
2023-02-02T12:52:03.954Z,0.80
2023-02-02T12:53:03.956Z,0.70
2023-02-02T12:56:02.474Z,0.70
2023-02-02T12:57:03.413Z,0.70
2023-02-02T12:58:04.630Z,0.60
2023-02-02T12:59:03.324Z,0.80
2023-02-02T13:00:03.268Z,0.70
2023-02-02T13:01:03.216Z,0.70
2023-02-02T13:02:03.140Z,0.80
2023-02-02T13:03:03.049Z,0.70
2023-02-02T13:04:02.933Z,0.60
2023-02-02T13:05:02.913Z,0.70
2023-02-02T13:06:02.831Z,0.60
2023-02-02T13:07:02.806Z,0.70
2023-02-02T13:08:02.692Z,0.70
2023-02-02T13:09:02.657Z,0.70
2023-02-02T13:10:02.544Z,0.70
2023-02-02T13:11:02.497Z,0.60
2023-02-02T13:12:02.568Z,0.70
2023-02-02T13:14:11.562Z,0.70
2023-02-02T13:15:12.474Z,0.70
2023-02-02T13:16:12.429Z,0.60
2023-02-02T13:17:12.383Z,0.80
2023-02-02T13:18:12.334Z,0.70
2023-02-02T13:19:12.243Z,0.60
2023-02-02T13:20:12.165Z,0.70
2023-02-02T13:21:13.105Z,0.70
2023-02-02T13:22:12.060Z,0.80
2023-02-02T13:23:12.604Z,0.70
2023-02-02T13:24:11.929Z,0.70
2023-02-02T13:25:11.864Z,0.60
2023-02-02T13:26:11.870Z,0.70
2023-02-02T13:27:11.773Z,0.60
2023-02-02T13:28:11.654Z,0.70
2023-02-02T13:29:11.659Z,0.60
2023-02-02T13:30:11.524Z,0.70
2023-02-02T13:31:32.546Z,0.60
2023-02-02T13:32:11.400Z,0.70
2023-02-02T13:33:11.395Z,0.70
2023-02-02T13:34:11.315Z,0.60
2023-02-02T13:35:11.227Z,0.70
2023-02-02T13:36:11.168Z,0.60
2023-02-02T13:37:11.355Z,0.70